createdAt,value
2018-09-21T00:01:37.301Z,87.55
2018-09-21T00:04:13.422Z,88.14
2018-09-21T00:06:42.591Z,88.39
2018-09-21T00:09:12.825Z,88.31
2018-09-21T00:11:42.016Z,88.34
2018-09-21T00:14:11.352Z,88.50
2018-09-21T00:16:40.483Z,88.02
2018-09-21T00:19:09.657Z,88.22
2018-09-21T00:21:38.847Z,88.62
2018-09-21T00:24:07.949Z,88.45
2018-09-21T00:26:38.521Z,88.67
2018-09-21T00:29:08.237Z,88.18
2018-09-21T00:31:37.509Z,88.61
2018-09-21T00:34:07.601Z,88.40
2018-09-21T00:49:32.055Z,88.56
2018-09-21T00:52:01.373Z,87.98
2018-09-21T00:54:30.574Z,87.90
2018-09-21T00:56:59.769Z,88.17
2018-09-21T00:59:29.205Z,88.20
2018-09-21T01:01:58.855Z,88.22
2018-09-21T01:04:32.150Z,88.70
2018-09-21T01:07:01.391Z,88.73
2018-09-21T01:09:30.517Z,88.82
2018-09-21T01:11:59.887Z,88.75
2018-09-21T01:14:29.126Z,89.16
2018-09-21T01:16:58.310Z,88.64
2018-09-21T01:19:27.544Z,88.94
2018-09-21T01:21:56.749Z,88.69
2018-09-21T01:24:26.405Z,89.12
2018-09-21T01:26:55.610Z,89.00
2018-09-21T01:29:24.910Z,88.72
2018-09-21T01:31:54.138Z,89.03
2018-09-21T01:34:23.344Z,88.82
2018-09-21T01:36:52.593Z,88.81
2018-09-21T01:39:21.753Z,88.58
2018-09-21T01:41:50.917Z,88.99
2018-09-21T01:44:20.145Z,88.81
2018-09-21T01:46:49.336Z,88.74
2018-09-21T01:49:19.035Z,88.51
2018-09-21T01:51:49.233Z,88.48
2018-09-21T01:54:19.437Z,88.47
2018-09-21T01:56:48.637Z,88.42
2018-09-21T01:59:18.153Z,88.64
2018-09-21T02:01:47.977Z,88.70
2018-09-21T02:04:17.285Z,89.25
2018-09-21T02:06:46.661Z,88.96
2018-09-21T02:09:16.077Z,89.01
2018-09-21T02:11:45.412Z,89.13
2018-09-21T02:14:14.785Z,89.59
2018-09-21T02:16:44.095Z,89.63
2018-09-21T02:19:13.503Z,89.95
2018-09-21T02:21:42.949Z,89.38
2018-09-21T02:24:12.225Z,89.90
2018-09-21T02:26:41.706Z,89.59
2018-09-21T02:29:10.925Z,90.15
2018-09-21T02:31:40.278Z,89.85
2018-09-21T02:34:09.802Z,90.14
2018-09-21T02:36:39.215Z,90.11
2018-09-21T02:39:09.493Z,89.79
2018-09-21T02:41:39.788Z,89.85
2018-09-21T02:44:09.097Z,89.60
2018-09-21T02:46:38.917Z,90.53
2018-09-21T02:49:08.961Z,90.62
2018-09-21T02:51:39.086Z,90.87
2018-09-21T02:54:09.100Z,90.93
2018-09-21T02:56:39.815Z,90.95
2018-09-21T02:59:09.163Z,91.09
2018-09-21T03:01:39.046Z,91.05
2018-09-21T03:04:09.285Z,91.01
2018-09-21T03:06:39.062Z,91.36
2018-09-21T03:09:10.050Z,91.70
2018-09-21T03:11:45.060Z,91.70
2018-09-21T03:14:14.502Z,91.48
2018-09-21T03:16:43.949Z,91.55
2018-09-21T03:19:13.536Z,91.64
2018-09-21T03:21:44.483Z,91.77
2018-09-21T03:24:14.108Z,91.76
2018-09-21T03:26:43.436Z,91.71
2018-09-21T03:29:12.773Z,91.82
2018-09-21T03:31:42.240Z,91.72
2018-09-21T03:34:11.880Z,91.80
2018-09-21T03:36:41.196Z,91.22
2018-09-21T03:39:11.413Z,90.79
2018-09-21T03:41:40.902Z,90.81
2018-09-21T03:44:10.541Z,90.14
2018-09-21T03:46:40.194Z,90.60
2018-09-21T03:49:09.459Z,90.71
2018-09-21T03:51:39.888Z,90.92
2018-09-21T03:54:09.620Z,90.47
2018-09-21T03:56:39.795Z,90.70
2018-09-21T03:59:09.780Z,91.03
2018-09-21T04:01:39.569Z,91.26
2018-09-21T04:04:09.559Z,90.90
2018-09-21T04:06:39.815Z,91.12
2018-09-21T04:09:10.737Z,91.37
2018-09-21T04:11:40.003Z,91.31
2018-09-21T04:14:09.681Z,91.37
2018-09-21T04:16:40.311Z,91.61
2018-09-21T04:19:10.062Z,91.42
2018-09-21T04:21:40.107Z,91.40
2018-09-21T04:24:09.781Z,91.50
2018-09-21T04:26:39.920Z,91.68
2018-09-21T04:29:09.756Z,91.36
2018-09-21T04:31:40.165Z,91.12
2018-09-21T04:34:10.038Z,90.75
2018-09-21T04:36:40.190Z,89.71
2018-09-21T04:39:11.979Z,90.33
2018-09-21T04:41:41.405Z,90.79
2018-09-21T04:44:10.837Z,91.24
2018-09-21T04:46:40.293Z,91.86
2018-09-21T04:49:11.008Z,92.40
2018-09-21T04:51:40.232Z,92.19
2018-09-21T04:54:12.771Z,92.03
2018-09-21T04:56:42.013Z,92.06
2018-09-21T04:59:11.373Z,92.04
2018-09-21T05:01:40.695Z,92.54
2018-09-21T05:04:09.925Z,92.88
2018-09-21T05:06:39.903Z,93.50
2018-09-21T05:09:10.671Z,93.49
2018-09-21T05:11:40.315Z,93.83
2018-09-21T05:14:10.349Z,94.19
2018-09-21T05:16:40.597Z,94.26
2018-09-21T05:19:10.214Z,94.62
2018-09-21T05:21:40.372Z,94.72
2018-09-21T05:24:10.867Z,94.56
2018-09-21T05:26:40.854Z,94.43
2018-09-21T05:29:10.247Z,94.56
2018-09-21T05:31:40.636Z,94.38
2018-09-21T05:34:10.866Z,94.04
2018-09-21T05:36:41.326Z,93.90
2018-09-21T05:39:15.288Z,94.19
2018-09-21T05:41:44.469Z,94.51
2018-09-21T05:44:13.584Z,94.20
2018-09-21T05:46:42.771Z,94.49
2018-09-21T05:49:11.886Z,94.67
2018-09-21T05:51:41.120Z,94.74
2018-09-21T05:54:10.576Z,94.29
2018-09-21T05:56:41.200Z,94.28
2018-09-21T05:59:10.634Z,93.99
2018-09-21T06:01:40.466Z,94.42
2018-09-21T06:04:10.744Z,94.10
2018-09-21T06:06:41.020Z,94.38
2018-09-21T06:09:12.537Z,94.32
2018-09-21T06:11:42.384Z,93.82
2018-09-21T06:14:12.456Z,93.71
2018-09-21T06:16:41.890Z,94.18
2018-09-21T06:19:11.239Z,94.33
2018-09-21T06:21:41.000Z,94.12
2018-09-21T06:24:11.598Z,94.27
2018-09-21T06:26:41.170Z,94.34
2018-09-21T06:29:11.133Z,94.11
2018-09-21T06:31:41.185Z,94.23
2018-09-21T06:34:11.234Z,94.74
2018-09-21T06:36:40.970Z,94.54
2018-09-21T06:39:12.375Z,94.53
2018-09-21T06:41:41.818Z,94.85
2018-09-21T06:44:11.332Z,94.88
2018-09-21T06:46:40.992Z,94.49
2018-09-21T06:49:11.192Z,94.50
2018-09-21T06:51:46.112Z,94.69
2018-09-21T06:54:15.575Z,94.89
2018-09-21T06:56:45.386Z,95.09
2018-09-21T06:59:14.846Z,94.67
2018-09-21T07:01:44.266Z,94.53
2018-09-21T07:04:13.655Z,94.76
2018-09-21T07:06:43.121Z,94.39
2018-09-21T07:09:14.260Z,93.98
2018-09-21T07:11:43.834Z,93.40
2018-09-21T07:14:13.668Z,92.92
2018-09-21T07:16:44.220Z,92.87
2018-09-21T07:19:13.622Z,92.62
2018-09-21T07:21:43.019Z,91.22
2018-09-21T07:24:18.471Z,91.31
2018-09-21T07:26:47.978Z,92.09
2018-09-21T07:29:17.661Z,91.77
2018-09-21T07:31:51.153Z,90.52
2018-09-21T07:34:20.469Z,90.45
2018-09-21T07:36:49.885Z,89.16
2018-09-21T07:39:19.241Z,89.57
2018-09-21T07:41:48.622Z,87.91
2018-09-21T07:44:18.174Z,86.99
2018-09-21T07:46:47.563Z,86.39
2018-09-21T07:49:16.928Z,85.96
2018-09-21T07:51:46.241Z,85.13
2018-09-21T07:54:15.598Z,85.46
2018-09-21T07:56:45.041Z,84.70
2018-09-21T07:59:14.554Z,84.34
2018-09-21T08:01:43.977Z,83.18
2018-09-21T08:04:13.233Z,82.74
2018-09-21T08:06:42.655Z,83.42
2018-09-21T08:09:12.387Z,83.24
2018-09-21T08:11:41.815Z,82.32
2018-09-21T08:14:11.927Z,81.93
2018-09-21T08:16:41.762Z,81.16
2018-09-21T08:19:11.841Z,81.07
2018-09-21T08:21:41.839Z,79.36
2018-09-21T08:24:11.904Z,78.70
2018-09-21T08:26:42.374Z,78.93
2018-09-21T08:29:11.990Z,79.43
2018-09-21T08:31:41.994Z,78.34
2018-09-21T08:34:12.125Z,78.60
2018-09-21T08:36:42.298Z,77.81
2018-09-21T08:39:12.805Z,77.39
2018-09-21T08:41:42.501Z,77.44
2018-09-21T08:44:12.173Z,77.49
2018-09-21T08:46:42.117Z,76.94
2018-09-21T08:49:11.471Z,76.97
2018-09-21T08:51:40.833Z,75.94
2018-09-21T08:54:10.118Z,73.67
2018-09-21T08:56:39.417Z,74.43
2018-09-21T08:59:08.617Z,73.94
2018-09-21T09:01:37.931Z,73.67
2018-09-21T09:04:07.209Z,72.16
2018-09-21T09:06:36.510Z,70.18
2018-09-21T09:09:08.372Z,71.24
2018-09-21T09:11:38.282Z,69.46
2018-09-21T09:14:07.809Z,70.08
2018-09-21T09:16:37.137Z,69.20
2018-09-21T09:19:06.511Z,68.28
2018-09-21T09:21:36.615Z,68.50
2018-09-21T09:24:05.990Z,69.04
2018-09-21T09:26:35.312Z,67.64
2018-09-21T09:29:04.568Z,66.39
2018-09-21T09:31:34.921Z,65.29
2018-09-21T09:34:04.362Z,65.01
2018-09-21T09:36:33.698Z,65.14
2018-09-21T09:39:03.170Z,66.46
2018-09-21T09:41:32.761Z,64.54
2018-09-21T09:44:02.112Z,64.18
2018-09-21T09:46:32.372Z,63.90
2018-09-21T09:49:01.816Z,64.58
2018-09-21T09:51:31.113Z,64.49
2018-09-21T09:54:00.442Z,63.84
2018-09-21T09:56:30.105Z,63.90
2018-09-21T09:59:00.000Z,64.22
2018-09-21T10:01:29.354Z,62.74
2018-09-21T10:03:58.861Z,62.84
2018-09-21T10:06:28.149Z,62.79
2018-09-21T10:08:57.410Z,61.42
2018-09-21T10:11:26.820Z,61.69
2018-09-21T10:13:56.196Z,62.81
2018-09-21T10:16:25.616Z,61.09
2018-09-21T10:18:54.954Z,60.04
2018-09-21T10:21:24.288Z,60.35
2018-09-21T10:23:53.705Z,60.09
2018-09-21T10:26:23.014Z,59.52
2018-09-21T10:28:52.583Z,59.92
2018-09-21T10:31:21.596Z,59.92
2018-09-21T10:33:51.232Z,59.58
2018-09-21T10:36:20.502Z,58.72
2018-09-21T10:38:49.822Z,57.21
2018-09-21T10:41:19.368Z,57.45
2018-09-21T10:43:48.740Z,56.80
2018-09-21T10:46:19.274Z,56.45
2018-09-21T10:48:48.577Z,52.82
2018-09-21T10:51:17.885Z,53.92
2018-09-21T10:53:48.823Z,53.40
2018-09-21T10:56:18.222Z,52.71
2018-09-21T10:58:47.554Z,48.69
2018-09-21T11:01:17.014Z,50.44
2018-09-21T11:03:46.308Z,50.65
2018-09-21T11:06:15.885Z,50.78
2018-09-21T11:08:45.823Z,48.64
2018-09-21T11:11:15.186Z,47.95
2018-09-21T11:13:44.584Z,50.89
2018-09-21T11:16:13.938Z,50.97
2018-09-21T11:18:43.297Z,49.56
2018-09-21T11:21:14.024Z,50.48
2018-09-21T11:23:43.862Z,52.36
2018-09-21T11:26:13.411Z,52.33
2018-09-21T11:28:43.438Z,51.15
2018-09-21T11:31:13.485Z,52.33
2018-09-21T11:33:43.330Z,52.19
2018-09-21T11:36:13.560Z,51.79
2018-09-21T11:38:43.618Z,52.00
2018-09-21T11:41:13.600Z,53.04
2018-09-21T11:43:43.665Z,50.51
2018-09-21T11:46:13.545Z,47.43
2018-09-21T11:48:43.514Z,47.65
2018-09-21T11:51:13.565Z,48.41
2018-09-21T11:53:43.806Z,47.10
2018-09-21T11:56:13.642Z,46.99
2018-09-21T11:58:43.761Z,47.88
2018-09-21T12:01:13.802Z,47.29
2018-09-21T12:03:45.078Z,47.48
2018-09-21T12:06:14.416Z,47.75
2018-09-21T12:08:43.699Z,46.99
2018-09-21T12:11:14.068Z,46.98
2018-09-21T12:13:43.896Z,46.19
2018-09-21T12:16:13.785Z,46.71
2018-09-21T12:18:43.744Z,45.97
2018-09-21T12:21:13.732Z,45.45
2018-09-21T12:23:43.678Z,45.98
2018-09-21T12:26:13.681Z,45.02
2018-09-21T12:28:43.713Z,45.04
2018-09-21T12:31:14.369Z,45.33
2018-09-21T12:33:43.845Z,45.73
2018-09-21T12:36:13.995Z,44.48
2018-09-21T12:39:15.227Z,44.52
2018-09-21T12:41:44.669Z,46.24
2018-09-21T12:44:15.274Z,43.93
2018-09-21T12:46:44.461Z,44.67
2018-09-21T12:49:14.336Z,45.78
2018-09-21T12:51:44.031Z,43.62
2018-09-21T12:54:13.983Z,44.36
2018-09-21T12:56:44.083Z,43.51
2018-09-21T12:59:14.066Z,44.10
2018-09-21T13:01:44.074Z,45.00
2018-09-21T13:04:14.013Z,44.79
2018-09-21T13:06:44.238Z,43.46
2018-09-21T13:09:14.337Z,43.93
2018-09-21T13:11:44.310Z,44.94
2018-09-21T13:14:14.188Z,43.65
2018-09-21T13:16:44.293Z,43.90
2018-09-21T13:19:14.232Z,44.24
2018-09-21T13:21:44.308Z,44.00
2018-09-21T13:24:14.192Z,43.39
2018-09-21T13:26:44.480Z,44.75
2018-09-21T13:29:14.478Z,43.55
2018-09-21T13:31:44.407Z,40.99
2018-09-21T13:34:14.316Z,41.46
2018-09-21T13:36:44.460Z,40.66
2018-09-21T13:39:14.295Z,42.94
2018-09-21T13:41:44.346Z,42.12
2018-09-21T13:44:14.382Z,41.68
2018-09-21T13:46:44.410Z,41.36
2018-09-21T13:49:14.334Z,42.32
2018-09-21T13:51:44.482Z,41.10
2018-09-21T13:54:14.436Z,40.92
2018-09-21T13:56:44.534Z,42.83
2018-09-21T13:59:14.435Z,43.30
2018-09-21T14:01:44.545Z,42.95
2018-09-21T14:04:14.487Z,42.00
2018-09-21T14:06:44.590Z,42.16
2018-09-21T14:09:14.560Z,40.69
2018-09-21T14:11:44.599Z,40.64
2018-09-21T14:14:14.631Z,39.75
2018-09-21T14:16:44.624Z,40.23
2018-09-21T14:19:14.579Z,41.35
2018-09-21T14:21:44.727Z,41.02
2018-09-21T14:24:14.667Z,39.75
2018-09-21T14:26:44.989Z,40.01
2018-09-21T14:29:14.758Z,40.45
2018-09-21T14:31:44.776Z,41.23
2018-09-21T14:34:14.804Z,40.84
2018-09-21T14:36:44.717Z,41.68
2018-09-21T14:39:14.793Z,42.20
2018-09-21T14:41:44.701Z,42.77
2018-09-21T14:44:14.819Z,42.87
2018-09-21T14:46:44.815Z,43.52
2018-09-21T14:49:14.798Z,43.22
2018-09-21T14:51:44.858Z,44.42
2018-09-21T14:54:14.863Z,44.96
2018-09-21T14:56:45.657Z,44.81
2018-09-21T14:59:14.976Z,44.08
2018-09-21T15:01:44.856Z,44.41
2018-09-21T15:04:14.957Z,43.88
2018-09-21T15:06:44.987Z,44.73
2018-09-21T15:09:14.958Z,45.59
2018-09-21T15:11:44.960Z,45.80
2018-09-21T15:14:14.979Z,45.30
2018-09-21T15:16:45.036Z,45.66
2018-09-21T15:19:15.146Z,45.25
2018-09-21T15:21:45.183Z,46.16
2018-09-21T15:24:15.110Z,45.61
2018-09-21T15:26:45.122Z,45.04
2018-09-21T15:29:15.191Z,46.78
2018-09-21T15:31:45.175Z,45.24
2018-09-21T15:34:15.152Z,45.21
2018-09-21T15:36:45.237Z,44.89
2018-09-21T15:39:15.296Z,44.53
2018-09-21T15:41:45.219Z,43.57
2018-09-21T15:44:15.261Z,44.52
2018-09-21T15:46:45.319Z,44.56
2018-09-21T15:49:15.305Z,44.59
2018-09-21T15:51:45.463Z,45.33
2018-09-21T15:54:15.642Z,45.24
2018-09-21T15:56:45.481Z,45.23
2018-09-21T15:59:15.819Z,45.09
2018-09-21T16:01:45.396Z,45.93
2018-09-21T16:04:15.487Z,46.38
2018-09-21T16:06:45.510Z,46.74
2018-09-21T16:09:15.535Z,46.96
2018-09-21T16:11:45.555Z,47.75
2018-09-21T16:14:15.610Z,47.87
2018-09-21T16:16:45.641Z,47.89
2018-09-21T16:19:15.631Z,47.02
2018-09-21T16:21:45.891Z,47.80
2018-09-21T16:24:15.588Z,48.29
2018-09-21T16:26:45.715Z,47.72
2018-09-21T16:29:15.730Z,47.80
2018-09-21T16:31:45.659Z,48.72
2018-09-21T16:34:15.749Z,51.08
2018-09-21T16:36:45.674Z,51.60
2018-09-21T16:39:15.741Z,52.18
2018-09-21T16:41:45.770Z,53.88
2018-09-21T16:44:15.821Z,54.71
2018-09-21T16:46:45.765Z,55.61
2018-09-21T16:49:15.754Z,56.08
2018-09-21T16:51:45.858Z,56.31
2018-09-21T16:54:15.924Z,57.59
2018-09-21T16:56:45.934Z,57.56
2018-09-21T16:59:15.974Z,57.69
2018-09-21T17:01:45.951Z,58.30
2018-09-21T17:04:16.202Z,58.43
2018-09-21T17:06:48.472Z,59.36
2018-09-21T17:09:18.046Z,57.50
2018-09-21T17:11:47.537Z,57.37
2018-09-21T17:14:16.863Z,57.09
2018-09-21T17:16:46.330Z,57.36
2018-09-21T17:19:16.212Z,56.17
2018-09-21T17:21:46.239Z,56.35
2018-09-21T17:24:16.279Z,56.60
2018-09-21T17:26:46.444Z,56.79
2018-09-21T17:29:16.504Z,57.10
2018-09-21T17:31:46.627Z,56.70
2018-09-21T17:34:16.353Z,57.02
2018-09-21T17:36:47.606Z,56.00
2018-09-21T17:39:17.047Z,55.92
2018-09-21T17:41:46.553Z,55.14
2018-09-21T17:44:16.462Z,56.83
2018-09-21T17:46:46.682Z,57.24
2018-09-21T17:49:16.392Z,57.38
2018-09-21T17:51:46.499Z,57.49
2018-09-21T17:54:16.448Z,58.19
2018-09-21T17:56:46.294Z,58.74
2018-09-21T17:59:16.392Z,58.89
2018-09-21T18:01:47.001Z,59.34
2018-09-21T18:04:16.558Z,61.14
2018-09-21T18:06:46.963Z,63.28
2018-09-21T18:09:16.520Z,64.29
2018-09-21T18:11:46.553Z,65.05
2018-09-21T18:14:16.550Z,64.86
2018-09-21T18:16:46.571Z,65.30
2018-09-21T18:19:17.081Z,64.63
2018-09-21T18:21:46.704Z,63.83
2018-09-21T18:24:16.873Z,64.51
2018-09-21T18:26:46.901Z,64.20
2018-09-21T18:29:17.723Z,64.39
2018-09-21T18:31:47.046Z,64.23
2018-09-21T18:34:16.944Z,64.71
2018-09-21T18:36:46.898Z,65.05
2018-09-21T18:39:16.838Z,66.00
2018-09-21T18:41:47.547Z,65.55
2018-09-21T18:44:17.805Z,67.26
2018-09-21T18:46:47.447Z,68.98
2018-09-21T18:49:17.177Z,70.47
2018-09-21T18:51:47.175Z,72.18
2018-09-21T18:54:17.240Z,72.72
2018-09-21T18:56:47.229Z,73.75
2018-09-21T18:59:17.585Z,73.90
2018-09-21T19:01:47.140Z,74.95
2018-09-21T19:04:17.373Z,76.18
2018-09-21T19:06:47.368Z,75.35
2018-09-21T19:09:17.320Z,76.60
2018-09-21T19:11:47.437Z,76.43
2018-09-21T19:14:17.372Z,74.51
2018-09-21T19:16:47.349Z,72.85
2018-09-21T19:19:17.359Z,72.81
2018-09-21T19:21:47.476Z,72.39
2018-09-21T19:24:17.554Z,72.58
2018-09-21T19:26:48.226Z,67.82
2018-09-21T19:29:17.717Z,66.10
2018-09-21T19:31:47.611Z,65.31
2018-09-21T19:34:17.519Z,66.82
2018-09-21T19:36:47.672Z,65.33
2018-09-21T19:39:17.747Z,64.35
2018-09-21T19:41:47.609Z,66.04
2018-09-21T19:44:17.700Z,65.20
2018-09-21T19:46:47.882Z,67.07
2018-09-21T19:49:17.757Z,67.83
2018-09-21T19:51:47.808Z,66.04
2018-09-21T19:54:17.969Z,65.52
2018-09-21T19:56:47.863Z,66.07
2018-09-21T19:59:17.913Z,65.62
2018-09-21T20:01:47.823Z,65.08
2018-09-21T20:04:17.934Z,65.84
2018-09-21T20:06:47.864Z,67.73
2018-09-21T20:09:17.855Z,68.61
2018-09-21T20:11:47.961Z,68.67
2018-09-21T20:14:17.985Z,70.30
2018-09-21T20:16:48.918Z,70.17
2018-09-21T20:19:18.902Z,68.83
2018-09-21T20:21:48.490Z,69.04
2018-09-21T20:24:17.996Z,69.53
2018-09-21T20:26:48.076Z,66.25
2018-09-21T20:29:17.905Z,68.33
2018-09-21T20:31:53.374Z,69.21
2018-09-21T20:34:22.809Z,71.62
2018-09-21T20:36:52.095Z,73.22
2018-09-21T20:39:21.481Z,74.27
2018-09-21T20:41:50.949Z,73.90
2018-09-21T20:44:20.675Z,74.40
2018-09-21T20:46:49.843Z,75.65
2018-09-21T20:49:19.106Z,75.11
2018-09-21T20:51:48.319Z,74.79
2018-09-21T20:54:18.076Z,76.18
2018-09-21T20:56:48.046Z,75.14
2018-09-21T20:59:18.075Z,77.21
2018-09-21T21:01:48.046Z,76.54
2018-09-21T21:04:18.128Z,76.72
2018-09-21T21:06:48.125Z,75.14
2018-09-21T21:09:18.144Z,76.33
2018-09-21T21:11:48.120Z,77.28
2018-09-21T21:14:18.178Z,76.09
2018-09-21T21:16:48.180Z,76.55
2018-09-21T21:19:18.331Z,76.02
2018-09-21T21:21:48.369Z,76.15
2018-09-21T21:24:18.363Z,74.62
2018-09-21T21:26:48.387Z,76.13
2018-09-21T21:29:18.360Z,75.84
2018-09-21T21:31:48.336Z,75.93
2018-09-21T21:34:18.376Z,75.40
2018-09-21T21:36:48.387Z,75.09
2018-09-21T21:39:18.361Z,76.45
2018-09-21T21:41:48.437Z,75.61
2018-09-21T21:44:18.469Z,76.10
2018-09-21T21:46:48.446Z,76.59
2018-09-21T21:49:18.441Z,76.09
2018-09-21T21:51:48.987Z,75.89
2018-09-21T21:54:18.526Z,75.97
2018-09-21T21:56:48.497Z,76.36
2018-09-21T21:59:18.577Z,76.48
2018-09-21T22:01:49.315Z,76.18
2018-09-21T22:04:19.176Z,76.47
2018-09-21T22:06:48.626Z,76.89
2018-09-21T22:09:18.583Z,76.71
2018-09-21T22:11:54.008Z,76.83
2018-09-21T22:14:23.154Z,76.49
2018-09-21T22:16:52.272Z,76.37
2018-09-21T22:19:21.397Z,77.04
2018-09-21T22:21:50.580Z,76.85
2018-09-21T22:24:19.707Z,77.29
2018-09-21T22:26:48.833Z,77.37
2018-09-21T22:29:18.805Z,77.41
2018-09-21T22:31:48.912Z,76.06
2018-09-21T22:34:18.940Z,75.88
2018-09-21T22:36:48.879Z,77.42
2018-09-21T22:39:18.981Z,77.07
2018-09-21T22:41:48.947Z,76.61
2018-09-21T22:44:19.070Z,77.12
2018-09-21T22:46:49.027Z,77.21
2018-09-21T22:49:21.691Z,77.26
2018-09-21T22:51:52.540Z,76.83
2018-09-21T22:54:21.737Z,76.95
2018-09-21T22:56:50.943Z,76.63
2018-09-21T22:59:20.201Z,76.34
2018-09-21T23:01:49.441Z,76.13
2018-09-21T23:04:19.251Z,76.05
2018-09-21T23:06:49.328Z,76.35
2018-09-21T23:09:19.303Z,75.25
2018-09-21T23:11:49.297Z,74.88
2018-09-21T23:14:19.265Z,74.99
2018-09-21T23:16:49.337Z,75.42
2018-09-21T23:19:19.341Z,74.94
2018-09-21T23:21:49.385Z,74.96
2018-09-21T23:24:19.373Z,75.32
2018-09-21T23:26:49.469Z,74.97
2018-09-21T23:29:19.404Z,75.44
2018-09-21T23:31:49.460Z,75.20
2018-09-21T23:34:19.449Z,74.07
2018-09-21T23:36:49.481Z,74.99
2018-09-21T23:39:19.751Z,74.44
2018-09-21T23:41:49.658Z,75.61
2018-09-21T23:44:19.651Z,75.25
2018-09-21T23:46:49.971Z,74.38
2018-09-21T23:49:19.654Z,74.24
2018-09-21T23:51:49.703Z,74.22
2018-09-21T23:54:20.008Z,74.39
2018-09-21T23:56:50.231Z,74.87
2018-09-21T23:59:19.769Z,74.67
